Flight Track Log - Related Links

Times and Time Zones

All times are in EDT time to prevent confusion due to time zone crossing. See the SWA757 flight status page for this flight to view local times or setup timezone preferences in your user account.

Time Position Orientation Groundspeed Altitude Reporting Facility
EDT Latitude Longitude Course Direction KTS MPH feet Rate Location/Type
Tue 11:32:37 PM 37.4000 -121.9667 338° Northwest 167 192 3,600  Level Northern Cal TRACON
Tue 11:33:31 PM 37.4333 -121.9833 338° Northwest 201 231 5,100 789 Climbing Northern Cal TRACON
Tue 11:34:31 PM 37.4500 -121.9167 73° East 212 244 5,100 381 Level Northern Cal TRACON
Tue 11:35:37 PM 37.4000 -121.8500 133° Southeast 240 276 5,900 2,566 Climbing Northern Cal TRACON
Tue 11:37:17 PM 37.3097 -121.7500 139° Southeast 307 353 12,200 3,801 Climbing Oakland Center
Tue 11:38:18 PM 37.2353 -121.6700 139° Southeast 350 403 16,100 3,443 Climbing Oakland Center
Tue 11:39:19 PM 37.1517 -121.5750 138° Southeast 404 465 19,200 3,148 Climbing Oakland Center
Tue 11:40:20 PM 37.0511 -121.4672 139° Southeast 448 516 22,500 3,148 Climbing Oakland Center
Tue 11:41:21 PM 36.9500 -121.3567 139° Southeast 480 552 25,600 2,902 Climbing Oakland Center
Tue 11:42:22 PM 36.8439 -121.2408 139° Southeast 503 579 28,400 2,607 Climbing Oakland Center
Tue 11:43:23 PM 36.7442 -121.1369 140° Southeast 508 585 30,900 1,279 Climbing Oakland Center
Tue 11:44:24 PM 36.6350 -121.0239 140° Southeast 511 588 31,000 -689 Climbing Oakland Center
Tue 11:45:25 PM 36.5061 -120.8822 139° Southeast 513 590 29,500 -984 Descending Oakland Center
Tue 11:46:26 PM 36.3981 -120.7667 139° Southeast 512 589 29,000 -248 Descending Oakland Center
Tue 11:47:26 PM 36.2867 -120.6494 140° Southeast 523 602 29,000  Level Oakland Center
Tue 11:48:27 PM 36.1725 -120.5306 140° Southeast 532 612 29,000  Level Oakland Center
Tue 11:49:28 PM 36.0592 -120.4078 139° Southeast 539 620 29,000  Level Oakland Center
Tue 11:50:29 PM 35.9464 -120.2908 140° Southeast 529 609 29,000  Level Oakland Center
Tue 11:51:30 PM 35.8331 -120.1736 140° Southeast 528 608 29,000  Level Oakland Center
Tue 11:52:31 PM 35.7225 -120.0581 140° Southeast 519 597 29,000  Level Oakland Center
Tue 11:53:32 PM 35.6106 -119.9469 141° Southeast 513 590 29,000  Level Oakland Center
Tue 11:54:32 PM 35.4925 -119.8456 145° Southeast 511 588 29,000  Level Oakland Center
Tue 11:55:33 PM 35.3742 -119.7442 145° Southeast 512 589 29,000  Level Oakland Center
Tue 11:56:34 PM 35.2569 -119.6431 145° Southeast 512 589 29,000  Level Oakland Center
Tue 11:57:35 PM 35.1408 -119.5431 145° Southeast 509 586 29,000  Level Oakland Center
Tue 11:58:36 PM 35.0250 -119.4442 145° Southeast 508 585 29,000  Level Oakland Center
Tue 11:59:37 PM 34.9089 -119.3450 145° Southeast 508 585 29,000  Level Oakland Center
Wed 12:00:44 AM 34.7700 -119.2264 145° Southeast 507 583 29,000  Level Los Angeles Center
Wed 12:01:45 AM 34.6550 -119.1306 146° Southeast 500 575 29,000  Level Los Angeles Center
Wed 12:02:47 AM 34.5375 -119.0336 146° Southeast 493 567 29,000  Level Los Angeles Center
Wed 12:03:48 AM 34.4256 -118.9400 145° Southeast 489 563 29,000  Level Los Angeles Center
Wed 12:04:50 AM 34.3164 -118.8414 143° Southeast 491 565 29,000 -49 Level Los Angeles Center
Wed 12:05:51 AM 34.2125 -118.7294 138° Southeast 499 574 28,900 -590 Descending Los Angeles Center
Wed 12:06:52 AM 34.1106 -118.6203 138° Southeast 491 565 27,800 -927 Descending Los Angeles Center
Wed 12:07:54 AM 34.0128 -118.5169 139° Southeast 470 541 27,000 -390 Descending Los Angeles Center
Wed 12:08:55 AM 33.9200 -118.4158 138° Southeast 451 519 27,000  Level Los Angeles Center
Wed 12:09:57 AM 33.8844 -118.2647 106° East 473 544 27,000 -146 Level Los Angeles Center
Wed 12:10:58 AM 33.8206 -118.1300 120° Southeast 469 540 26,700 -639 Descending Los Angeles Center
Wed 12:11:59 AM 33.7189 -118.0442 145° Southeast 446 513 25,700 -878 Descending Los Angeles Center
Wed 12:13:01 AM 33.6144 -117.9567 145° Southeast 451 519 24,900 -1,122 Descending Los Angeles Center
Wed 12:14:02 AM 33.4903 -117.8494 144° Southeast 453 521 23,400 -1,657 Descending Los Angeles Center
Wed 12:14:46 AM 33.4167 -117.7833 143° Southeast 440 506 22,000 -2,077 Descending Southern California TRACON
Wed 12:15:46 AM 33.3333 -117.6667 131° Southeast 433 498 19,800 -2,154 Descending Southern California TRACON
Wed 12:16:04 AM 33.3158 -117.6486 139° Southeast 432 497 19,200 -2,200 Descending Los Angeles Center
Wed 12:16:46 AM 33.2500 -117.5667 134° Southeast 424 488 17,600 -2,235 Descending Southern California TRACON
Wed 12:17:46 AM 33.1667 -117.5000 146° Southeast 411 473 15,400 -2,033 Descending Southern California TRACON
Wed 12:18:47 AM 33.0833 -117.4167 140° Southeast 379 436 13,500 -1,829 Descending Southern California TRACON
Wed 12:19:08 AM 33.0533 -117.4019 158° South 389 448 12,900 -2,500 Descending Los Angeles Center
Wed 12:19:47 AM 33.0000 -117.3500 141° Southeast 372 428 11,000 -2,000 Descending Southern California TRACON
Wed 12:20:41 AM 32.9167 -117.3000 153° Southeast 327 376 9,800 -1,650 Descending Southern California TRACON
Wed 12:21:47 AM 32.8333 -117.2333 146° Southeast 306 352 7,700 -1,780 Descending Southern California TRACON
Wed 12:22:12 AM 32.8233 -117.2178 127° Southeast 307 353 7,100 -1,186 Descending Los Angeles Center
Wed 12:23:13 AM 32.7919 -117.1219 111° Southeast 273 314 6,000 -733 Descending Los Angeles Center
Wed 12:23:42 AM 32.7833 -117.0833 105° East 252 290 6,000 -574 Level Southern California TRACON
Wed 12:24:47 AM 32.7667 -117.0000 103° East 242 278 5,100 -571 Descending Southern California TRACON
Wed 12:25:48 AM 32.7167 -116.9333 132° Southeast 237 273 4,800 -545 Descending Southern California TRACON
Wed 12:26:48 AM 32.6833 -116.9667 220° Southwest 204 235 4,000 -762 Descending Southern California TRACON
Wed 12:27:54 AM 32.7000 -117.0333 287° West 150 173 3,200 -850 Descending Southern California TRACON
Wed 12:28:48 AM 32.7000 -117.0667 270° West 150 173 2,300 -947 Descending Southern California TRACON
Wed 12:29:48 AM 32.7167 -117.1167 292° West 132 152 1,400 -830 Descending Southern California TRACON
Wed 12:30:22 AM 32.7189 -117.1272 284° West 136 157 1,000 -688 Descending Los Angeles Center
Wed 12:31:24 AM 32.7286 -117.1658 287° West 128 147 300 -677 Descending Los Angeles Center
Wed 12:33:00 AM 32.7333 -117.1833 258° West  Level FlightAware Approximate

Login

Don't have an account? Register now (free) for customized features, flight alerts, and more!